sensor_id;sensor_type;location;lat;lon;timestamp;P1;durP1;ratioP1;P2;durP2;ratioP2
8488;SDS011;4281;45.772;12.852;2022-08-21T00:01:09;3.50;;;3.13;;
8488;SDS011;4281;45.772;12.852;2022-08-21T00:03:41;4.20;;;3.50;;
8488;SDS011;4281;45.772;12.852;2022-08-21T00:06:09;7.67;;;4.20;;
8488;SDS011;4281;45.772;12.852;2022-08-21T00:08:39;4.87;;;3.60;;
8488;SDS011;4281;45.772;12.852;2022-08-21T00:11:08;5.60;;;4.07;;
8488;SDS011;4281;45.772;12.852;2022-08-21T00:13:38;3.97;;;3.57;;
8488;SDS011;4281;45.772;12.852;2022-08-21T00:16:07;6.37;;;4.17;;
8488;SDS011;4281;45.772;12.852;2022-08-21T00:18:36;4.30;;;3.57;;
8488;SDS011;4281;45.772;12.852;2022-08-21T00:21:05;3.80;;;3.50;;
8488;SDS011;4281;45.772;12.852;2022-08-21T00:23:34;4.37;;;3.67;;
8488;SDS011;4281;45.772;12.852;2022-08-21T00:26:03;6.90;;;3.60;;
8488;SDS011;4281;45.772;12.852;2022-08-21T00:28:31;4.90;;;3.77;;
8488;SDS011;4281;45.772;12.852;2022-08-21T00:31:01;4.97;;;4.00;;
8488;SDS011;4281;45.772;12.852;2022-08-21T00:33:31;4.40;;;4.00;;
8488;SDS011;4281;45.772;12.852;2022-08-21T00:36:00;4.67;;;3.50;;
8488;SDS011;4281;45.772;12.852;2022-08-21T00:38:29;5.43;;;3.90;;
8488;SDS011;4281;45.772;12.852;2022-08-21T00:40:58;4.70;;;3.63;;
8488;SDS011;4281;45.772;12.852;2022-08-21T00:43:49;5.00;;;3.80;;
8488;SDS011;4281;45.772;12.852;2022-08-21T00:46:19;6.53;;;4.50;;
8488;SDS011;4281;45.772;12.852;2022-08-21T00:48:53;7.10;;;4.50;;
8488;SDS011;4281;45.772;12.852;2022-08-21T00:51:25;5.47;;;4.37;;
8488;SDS011;4281;45.772;12.852;2022-08-21T00:54:04;6.53;;;4.67;;
8488;SDS011;4281;45.772;12.852;2022-08-21T00:56:44;4.33;;;3.93;;
8488;SDS011;4281;45.772;12.852;2022-08-21T00:59:16;5.57;;;4.47;;
8488;SDS011;4281;45.772;12.852;2022-08-21T01:01:48;6.93;;;4.33;;
8488;SDS011;4281;45.772;12.852;2022-08-21T01:04:18;5.43;;;3.60;;
8488;SDS011;4281;45.772;12.852;2022-08-21T01:06:48;4.67;;;3.47;;
8488;SDS011;4281;45.772;12.852;2022-08-21T01:09:17;4.10;;;3.60;;
8488;SDS011;4281;45.772;12.852;2022-08-21T01:11:46;4.60;;;4.07;;
8488;SDS011;4281;45.772;12.852;2022-08-21T01:14:15;4.30;;;3.67;;
8488;SDS011;4281;45.772;12.852;2022-08-21T01:16:46;3.87;;;3.43;;
8488;SDS011;4281;45.772;12.852;2022-08-21T01:19:20;4.17;;;3.70;;
8488;SDS011;4281;45.772;12.852;2022-08-21T01:21:51;8.43;;;3.87;;
8488;SDS011;4281;45.772;12.852;2022-08-21T01:24:20;4.47;;;3.67;;
8488;SDS011;4281;45.772;12.852;2022-08-21T01:26:49;3.80;;;3.50;;
8488;SDS011;4281;45.772;12.852;2022-08-21T01:29:22;4.10;;;3.40;;
8488;SDS011;4281;45.772;12.852;2022-08-21T01:31:57;4.03;;;3.50;;
8488;SDS011;4281;45.772;12.852;2022-08-21T01:34:26;5.17;;;3.60;;
8488;SDS011;4281;45.772;12.852;2022-08-21T01:36:55;4.67;;;3.53;;
8488;SDS011;4281;45.772;12.852;2022-08-21T01:39:24;3.70;;;3.40;;
8488;SDS011;4281;45.772;12.852;2022-08-21T01:41:52;5.90;;;4.33;;
8488;SDS011;4281;45.772;12.852;2022-08-21T01:44:21;3.93;;;3.53;;
8488;SDS011;4281;45.772;12.852;2022-08-21T01:46:50;4.17;;;3.67;;
8488;SDS011;4281;45.772;12.852;2022-08-21T01:49:18;4.53;;;4.03;;
8488;SDS011;4281;45.772;12.852;2022-08-21T01:51:47;4.13;;;3.73;;
8488;SDS011;4281;45.772;12.852;2022-08-21T01:54:16;5.13;;;3.80;;
8488;SDS011;4281;45.772;12.852;2022-08-21T01:56:47;5.83;;;3.87;;
8488;SDS011;4281;45.772;12.852;2022-08-21T01:59:17;3.63;;;3.33;;
8488;SDS011;4281;45.772;12.852;2022-08-21T02:01:45;5.03;;;3.60;;
8488;SDS011;4281;45.772;12.852;2022-08-21T02:04:14;5.93;;;3.17;;
8488;SDS011;4281;45.772;12.852;2022-08-21T02:06:43;4.23;;;3.13;;
8488;SDS011;4281;45.772;12.852;2022-08-21T02:09:11;3.60;;;3.30;;
8488;SDS011;4281;45.772;12.852;2022-08-21T02:11:41;4.13;;;2.80;;
8488;SDS011;4281;45.772;12.852;2022-08-21T02:14:10;4.77;;;3.27;;
8488;SDS011;4281;45.772;12.852;2022-08-21T02:16:57;3.60;;;3.03;;
8488;SDS011;4281;45.772;12.852;2022-08-21T02:19:35;5.90;;;2.80;;
8488;SDS011;4281;45.772;12.852;2022-08-21T02:22:06;4.23;;;2.60;;
8488;SDS011;4281;45.772;12.852;2022-08-21T02:24:35;2.93;;;2.63;;
8488;SDS011;4281;45.772;12.852;2022-08-21T02:27:22;2.87;;;2.67;;
8488;SDS011;4281;45.772;12.852;2022-08-21T02:29:52;2.80;;;2.10;;
8488;SDS011;4281;45.772;12.852;2022-08-21T02:32:21;2.77;;;2.13;;
8488;SDS011;4281;45.772;12.852;2022-08-21T02:34:49;2.67;;;2.30;;
8488;SDS011;4281;45.772;12.852;2022-08-21T02:37:18;3.07;;;2.27;;
8488;SDS011;4281;45.772;12.852;2022-08-21T02:39:47;3.07;;;2.20;;
8488;SDS011;4281;45.772;12.852;2022-08-21T02:42:16;2.00;;;1.90;;
8488;SDS011;4281;45.772;12.852;2022-08-21T02:44:46;3.30;;;2.27;;
8488;SDS011;4281;45.772;12.852;2022-08-21T02:47:14;2.77;;;1.90;;
8488;SDS011;4281;45.772;12.852;2022-08-21T02:49:42;2.77;;;2.07;;
8488;SDS011;4281;45.772;12.852;2022-08-21T02:52:11;2.17;;;1.80;;
8488;SDS011;4281;45.772;12.852;2022-08-21T02:54:40;3.27;;;1.93;;
8488;SDS011;4281;45.772;12.852;2022-08-21T02:57:09;5.33;;;2.23;;
8488;SDS011;4281;45.772;12.852;2022-08-21T02:59:37;5.60;;;2.07;;
8488;SDS011;4281;45.772;12.852;2022-08-21T03:02:08;3.57;;;2.20;;
8488;SDS011;4281;45.772;12.852;2022-08-21T03:04:37;3.73;;;1.80;;
8488;SDS011;4281;45.772;12.852;2022-08-21T03:07:12;2.53;;;1.87;;
8488;SDS011;4281;45.772;12.852;2022-08-21T03:09:41;3.07;;;1.97;;
8488;SDS011;4281;45.772;12.852;2022-08-21T03:12:21;4.03;;;1.90;;
8488;SDS011;4281;45.772;12.852;2022-08-21T03:14:51;4.07;;;1.87;;
8488;SDS011;4281;45.772;12.852;2022-08-21T03:17:21;2.97;;;1.60;;
8488;SDS011;4281;45.772;12.852;2022-08-21T03:19:55;1.90;;;1.80;;
8488;SDS011;4281;45.772;12.852;2022-08-21T03:22:24;2.40;;;1.73;;
8488;SDS011;4281;45.772;12.852;2022-08-21T03:24:53;1.80;;;1.60;;
8488;SDS011;4281;45.772;12.852;2022-08-21T03:27:23;2.13;;;1.87;;
8488;SDS011;4281;45.772;12.852;2022-08-21T03:29:55;2.30;;;1.67;;
8488;SDS011;4281;45.772;12.852;2022-08-21T03:32:25;2.70;;;1.93;;
8488;SDS011;4281;45.772;12.852;2022-08-21T03:34:55;2.43;;;1.80;;
8488;SDS011;4281;45.772;12.852;2022-08-21T03:37:23;2.47;;;1.50;;
8488;SDS011;4281;45.772;12.852;2022-08-21T03:39:52;3.70;;;1.63;;
8488;SDS011;4281;45.772;12.852;2022-08-21T03:42:20;2.30;;;1.57;;
8488;SDS011;4281;45.772;12.852;2022-08-21T03:44:49;3.93;;;1.63;;
8488;SDS011;4281;45.772;12.852;2022-08-21T03:47:18;2.13;;;1.40;;
8488;SDS011;4281;45.772;12.852;2022-08-21T03:49:48;2.93;;;1.60;;
8488;SDS011;4281;45.772;12.852;2022-08-21T03:52:16;2.13;;;1.50;;
8488;SDS011;4281;45.772;12.852;2022-08-21T03:54:45;1.60;;;1.50;;
8488;SDS011;4281;45.772;12.852;2022-08-21T03:57:13;3.83;;;1.90;;
8488;SDS011;4281;45.772;12.852;2022-08-21T03:59:42;1.67;;;1.47;;
8488;SDS011;4281;45.772;12.852;2022-08-21T04:02:11;2.13;;;1.40;;
8488;SDS011;4281;45.772;12.852;2022-08-21T04:04:43;1.40;;;1.30;;
8488;SDS011;4281;45.772;12.852;2022-08-21T04:07:13;2.23;;;1.60;;
8488;SDS011;4281;45.772;12.852;2022-08-21T04:09:41;1.97;;;1.70;;
8488;SDS011;4281;45.772;12.852;2022-08-21T04:12:10;3.07;;;1.57;;
8488;SDS011;4281;45.772;12.852;2022-08-21T04:14:38;1.73;;;1.60;;
8488;SDS011;4281;45.772;12.852;2022-08-21T04:17:08;2.43;;;1.90;;
8488;SDS011;4281;45.772;12.852;2022-08-21T04:19:36;2.57;;;1.70;;
8488;SDS011;4281;45.772;12.852;2022-08-21T04:22:04;1.70;;;1.60;;
8488;SDS011;4281;45.772;12.852;2022-08-21T04:24:34;1.37;;;1.20;;
8488;SDS011;4281;45.772;12.852;2022-08-21T04:27:03;4.00;;;1.60;;
8488;SDS011;4281;45.772;12.852;2022-08-21T04:29:31;3.33;;;1.80;;
8488;SDS011;4281;45.772;12.852;2022-08-21T04:32:05;1.70;;;1.60;;
8488;SDS011;4281;45.772;12.852;2022-08-21T04:34:33;1.67;;;1.50;;
8488;SDS011;4281;45.772;12.852;2022-08-21T04:37:02;2.50;;;1.90;;
8488;SDS011;4281;45.772;12.852;2022-08-21T04:39:31;3.10;;;1.60;;
8488;SDS011;4281;45.772;12.852;2022-08-21T04:42:01;5.40;;;2.10;;
8488;SDS011;4281;45.772;12.852;2022-08-21T04:44:31;2.40;;;1.60;;
8488;SDS011;4281;45.772;12.852;2022-08-21T04:46:59;3.50;;;1.80;;
8488;SDS011;4281;45.772;12.852;2022-08-21T04:49:27;1.70;;;1.60;;
8488;SDS011;4281;45.772;12.852;2022-08-21T04:51:57;2.57;;;1.70;;
8488;SDS011;4281;45.772;12.852;2022-08-21T04:54:25;3.83;;;2.00;;
8488;SDS011;4281;45.772;12.852;2022-08-21T04:56:55;2.73;;;1.80;;
8488;SDS011;4281;45.772;12.852;2022-08-21T04:59:41;2.97;;;1.80;;
8488;SDS011;4281;45.772;12.852;2022-08-21T05:02:13;2.67;;;1.90;;
8488;SDS011;4281;45.772;12.852;2022-08-21T05:04:43;1.90;;;1.60;;
8488;SDS011;4281;45.772;12.852;2022-08-21T05:07:19;1.83;;;1.73;;
8488;SDS011;4281;45.772;12.852;2022-08-21T05:10:08;1.70;;;1.60;;
8488;SDS011;4281;45.772;12.852;2022-08-21T05:12:39;2.73;;;1.60;;
8488;SDS011;4281;45.772;12.852;2022-08-21T05:15:11;3.43;;;1.87;;
8488;SDS011;4281;45.772;12.852;2022-08-21T05:17:39;2.37;;;1.50;;
8488;SDS011;4281;45.772;12.852;2022-08-21T05:20:18;2.07;;;1.60;;
8488;SDS011;4281;45.772;12.852;2022-08-21T05:22:47;2.50;;;1.50;;
8488;SDS011;4281;45.772;12.852;2022-08-21T05:25:15;1.73;;;1.50;;
8488;SDS011;4281;45.772;12.852;2022-08-21T05:27:47;2.80;;;1.50;;
8488;SDS011;4281;45.772;12.852;2022-08-21T05:30:19;2.17;;;1.57;;
8488;SDS011;4281;45.772;12.852;2022-08-21T05:32:48;1.57;;;1.30;;
8488;SDS011;4281;45.772;12.852;2022-08-21T05:35:16;2.13;;;1.20;;
8488;SDS011;4281;45.772;12.852;2022-08-21T05:37:45;1.80;;;1.50;;
8488;SDS011;4281;45.772;12.852;2022-08-21T05:40:13;2.07;;;1.50;;
8488;SDS011;4281;45.772;12.852;2022-08-21T05:42:48;3.30;;;1.40;;
8488;SDS011;4281;45.772;12.852;2022-08-21T05:45:22;1.50;;;1.30;;
8488;SDS011;4281;45.772;12.852;2022-08-21T05:48:09;1.40;;;1.30;;
8488;SDS011;4281;45.772;12.852;2022-08-21T05:50:39;1.50;;;1.40;;
8488;SDS011;4281;45.772;12.852;2022-08-21T05:53:08;1.90;;;1.20;;
8488;SDS011;4281;45.772;12.852;2022-08-21T05:55:37;2.10;;;1.00;;
8488;SDS011;4281;45.772;12.852;2022-08-21T05:58:11;1.50;;;1.40;;
8488;SDS011;4281;45.772;12.852;2022-08-21T06:03:29;2.23;;;1.53;;
8488;SDS011;4281;45.772;12.852;2022-08-21T06:05:59;2.23;;;1.40;;
8488;SDS011;4281;45.772;12.852;2022-08-21T06:08:28;2.80;;;1.20;;
8488;SDS011;4281;45.772;12.852;2022-08-21T06:10:58;1.57;;;1.47;;
8488;SDS011;4281;45.772;12.852;2022-08-21T06:13:28;1.57;;;1.47;;
8488;SDS011;4281;45.772;12.852;2022-08-21T06:16:00;1.63;;;1.10;;
8488;SDS011;4281;45.772;12.852;2022-08-21T06:18:32;2.77;;;1.30;;
8488;SDS011;4281;45.772;12.852;2022-08-21T06:21:01;1.47;;;1.13;;
8488;SDS011;4281;45.772;12.852;2022-08-21T06:23:47;2.37;;;1.10;;
8488;SDS011;4281;45.772;12.852;2022-08-21T06:26:16;1.20;;;1.10;;
8488;SDS011;4281;45.772;12.852;2022-08-21T06:28:44;1.13;;;1.00;;
8488;SDS011;4281;45.772;12.852;2022-08-21T06:31:13;2.27;;;1.00;;
8488;SDS011;4281;45.772;12.852;2022-08-21T06:33:44;2.20;;;0.80;;
8488;SDS011;4281;45.772;12.852;2022-08-21T06:36:13;1.47;;;1.20;;
8488;SDS011;4281;45.772;12.852;2022-08-21T06:38:42;1.63;;;1.00;;
8488;SDS011;4281;45.772;12.852;2022-08-21T06:41:17;1.17;;;1.00;;
8488;SDS011;4281;45.772;12.852;2022-08-21T06:43:52;2.17;;;1.07;;
8488;SDS011;4281;45.772;12.852;2022-08-21T06:46:20;1.10;;;1.00;;
8488;SDS011;4281;45.772;12.852;2022-08-21T06:48:51;1.40;;;1.20;;
8488;SDS011;4281;45.772;12.852;2022-08-21T06:51:19;1.23;;;1.07;;
8488;SDS011;4281;45.772;12.852;2022-08-21T06:53:47;1.43;;;0.90;;
8488;SDS011;4281;45.772;12.852;2022-08-21T06:56:16;1.53;;;1.00;;
8488;SDS011;4281;45.772;12.852;2022-08-21T06:58:45;1.00;;;0.97;;
8488;SDS011;4281;45.772;12.852;2022-08-21T07:01:14;1.07;;;0.97;;
8488;SDS011;4281;45.772;12.852;2022-08-21T07:03:42;1.20;;;1.10;;
8488;SDS011;4281;45.772;12.852;2022-08-21T07:06:13;2.40;;;1.00;;
8488;SDS011;4281;45.772;12.852;2022-08-21T07:08:41;1.97;;;1.07;;
8488;SDS011;4281;45.772;12.852;2022-08-21T07:11:11;2.77;;;1.10;;
8488;SDS011;4281;45.772;12.852;2022-08-21T07:13:44;1.80;;;1.10;;
8488;SDS011;4281;45.772;12.852;2022-08-21T07:16:13;2.53;;;1.10;;
8488;SDS011;4281;45.772;12.852;2022-08-21T07:18:42;2.10;;;1.10;;
8488;SDS011;4281;45.772;12.852;2022-08-21T07:21:12;1.63;;;1.20;;
8488;SDS011;4281;45.772;12.852;2022-08-21T07:23:42;3.47;;;1.43;;
8488;SDS011;4281;45.772;12.852;2022-08-21T07:26:11;1.87;;;1.10;;
8488;SDS011;4281;45.772;12.852;2022-08-21T07:28:41;1.67;;;0.93;;
8488;SDS011;4281;45.772;12.852;2022-08-21T07:31:10;2.07;;;1.20;;
8488;SDS011;4281;45.772;12.852;2022-08-21T07:33:43;1.37;;;1.17;;
8488;SDS011;4281;45.772;12.852;2022-08-21T07:36:13;1.30;;;1.13;;
8488;SDS011;4281;45.772;12.852;2022-08-21T07:38:43;1.90;;;1.10;;
8488;SDS011;4281;45.772;12.852;2022-08-21T07:41:14;1.50;;;1.10;;
8488;SDS011;4281;45.772;12.852;2022-08-21T07:43:44;1.20;;;1.10;;
8488;SDS011;4281;45.772;12.852;2022-08-21T07:46:13;3.20;;;1.10;;
8488;SDS011;4281;45.772;12.852;2022-08-21T07:48:42;1.90;;;1.00;;
8488;SDS011;4281;45.772;12.852;2022-08-21T07:51:12;2.20;;;1.50;;
8488;SDS011;4281;45.772;12.852;2022-08-21T07:53:47;0.90;;;0.90;;
8488;SDS011;4281;45.772;12.852;2022-08-21T07:56:16;1.40;;;1.30;;
8488;SDS011;4281;45.772;12.852;2022-08-21T07:58:45;1.40;;;1.00;;
8488;SDS011;4281;45.772;12.852;2022-08-21T08:01:13;3.20;;;1.33;;
8488;SDS011;4281;45.772;12.852;2022-08-21T08:03:42;1.83;;;1.10;;
8488;SDS011;4281;45.772;12.852;2022-08-21T08:06:11;1.27;;;1.13;;
8488;SDS011;4281;45.772;12.852;2022-08-21T08:08:41;1.63;;;1.20;;
8488;SDS011;4281;45.772;12.852;2022-08-21T08:11:11;1.40;;;1.10;;
8488;SDS011;4281;45.772;12.852;2022-08-21T08:13:42;1.60;;;1.17;;
8488;SDS011;4281;45.772;12.852;2022-08-21T08:16:13;1.50;;;1.40;;
8488;SDS011;4281;45.772;12.852;2022-08-21T08:18:41;2.30;;;1.17;;
8488;SDS011;4281;45.772;12.852;2022-08-21T08:21:11;2.20;;;1.67;;
8488;SDS011;4281;45.772;12.852;2022-08-21T08:23:42;3.23;;;1.20;;
8488;SDS011;4281;45.772;12.852;2022-08-21T08:26:11;2.03;;;1.37;;
8488;SDS011;4281;45.772;12.852;2022-08-21T08:28:41;1.73;;;1.27;;
8488;SDS011;4281;45.772;12.852;2022-08-21T08:31:10;1.60;;;1.30;;
8488;SDS011;4281;45.772;12.852;2022-08-21T08:33:39;2.37;;;1.20;;
8488;SDS011;4281;45.772;12.852;2022-08-21T08:36:12;1.93;;;1.10;;
8488;SDS011;4281;45.772;12.852;2022-08-21T08:38:45;1.43;;;1.20;;
8488;SDS011;4281;45.772;12.852;2022-08-21T08:41:15;1.63;;;1.10;;
8488;SDS011;4281;45.772;12.852;2022-08-21T08:43:48;4.37;;;1.57;;
8488;SDS011;4281;45.772;12.852;2022-08-21T08:46:31;2.57;;;1.40;;
8488;SDS011;4281;45.772;12.852;2022-08-21T08:49:05;2.47;;;1.43;;
8488;SDS011;4281;45.772;12.852;2022-08-21T08:51:40;2.13;;;1.20;;
8488;SDS011;4281;45.772;12.852;2022-08-21T08:54:21;1.30;;;1.07;;
8488;SDS011;4281;45.772;12.852;2022-08-21T08:56:58;1.83;;;1.33;;
8488;SDS011;4281;45.772;12.852;2022-08-21T08:59:30;2.13;;;1.40;;
8488;SDS011;4281;45.772;12.852;2022-08-21T09:02:03;3.40;;;1.57;;
8488;SDS011;4281;45.772;12.852;2022-08-21T09:04:32;2.50;;;1.30;;
8488;SDS011;4281;45.772;12.852;2022-08-21T09:07:04;2.90;;;1.50;;
8488;SDS011;4281;45.772;12.852;2022-08-21T09:09:47;1.90;;;1.40;;
8488;SDS011;4281;45.772;12.852;2022-08-21T09:12:28;2.03;;;1.30;;
8488;SDS011;4281;45.772;12.852;2022-08-21T09:15:06;2.00;;;1.60;;
8488;SDS011;4281;45.772;12.852;2022-08-21T09:17:52;1.90;;;1.23;;
8488;SDS011;4281;45.772;12.852;2022-08-21T09:20:39;4.77;;;1.50;;
8488;SDS011;4281;45.772;12.852;2022-08-21T09:23:18;1.70;;;1.40;;
8488;SDS011;4281;45.772;12.852;2022-08-21T09:26:01;2.57;;;1.40;;
8488;SDS011;4281;45.772;12.852;2022-08-21T09:28:35;2.70;;;1.30;;
8488;SDS011;4281;45.772;12.852;2022-08-21T09:31:05;2.10;;;1.40;;
8488;SDS011;4281;45.772;12.852;2022-08-21T09:33:35;1.23;;;1.10;;
8488;SDS011;4281;45.772;12.852;2022-08-21T09:36:04;2.00;;;1.20;;
8488;SDS011;4281;45.772;12.852;2022-08-21T09:38:33;1.73;;;1.63;;
8488;SDS011;4281;45.772;12.852;2022-08-21T09:41:05;3.27;;;1.40;;
8488;SDS011;4281;45.772;12.852;2022-08-21T09:43:36;2.27;;;1.60;;
8488;SDS011;4281;45.772;12.852;2022-08-21T09:46:32;4.73;;;1.60;;
8488;SDS011;4281;45.772;12.852;2022-08-21T09:52:06;4.03;;;1.50;;
8488;SDS011;4281;45.772;12.852;2022-08-21T09:54:45;2.10;;;1.30;;
8488;SDS011;4281;45.772;12.852;2022-08-21T09:57:18;1.40;;;1.27;;
8488;SDS011;4281;45.772;12.852;2022-08-21T10:00:15;1.70;;;1.50;;
8488;SDS011;4281;45.772;12.852;2022-08-21T10:02:51;1.83;;;1.40;;
8488;SDS011;4281;45.772;12.852;2022-08-21T10:05:20;2.33;;;1.50;;
8488;SDS011;4281;45.772;12.852;2022-08-21T10:07:52;2.43;;;1.40;;
8488;SDS011;4281;45.772;12.852;2022-08-21T10:10:22;1.57;;;1.10;;
8488;SDS011;4281;45.772;12.852;2022-08-21T10:12:56;1.50;;;1.10;;
8488;SDS011;4281;45.772;12.852;2022-08-21T10:15:34;1.20;;;1.10;;
8488;SDS011;4281;45.772;12.852;2022-08-21T10:18:17;1.83;;;1.50;;
8488;SDS011;4281;45.772;12.852;2022-08-21T10:20:50;1.30;;;1.20;;
8488;SDS011;4281;45.772;12.852;2022-08-21T10:23:29;4.60;;;1.50;;
8488;SDS011;4281;45.772;12.852;2022-08-21T10:26:13;1.83;;;1.20;;
8488;SDS011;4281;45.772;12.852;2022-08-21T10:28:56;3.23;;;1.20;;
8488;SDS011;4281;45.772;12.852;2022-08-21T10:31:33;1.90;;;1.30;;
8488;SDS011;4281;45.772;12.852;2022-08-21T10:34:14;2.07;;;1.40;;
8488;SDS011;4281;45.772;12.852;2022-08-21T10:36:55;2.10;;;1.33;;
8488;SDS011;4281;45.772;12.852;2022-08-21T10:39:36;2.37;;;1.40;;
8488;SDS011;4281;45.772;12.852;2022-08-21T10:42:18;2.17;;;1.20;;
8488;SDS011;4281;45.772;12.852;2022-08-21T10:47:47;1.43;;;1.20;;
8488;SDS011;4281;45.772;12.852;2022-08-21T10:50:26;1.43;;;1.33;;
8488;SDS011;4281;45.772;12.852;2022-08-21T10:55:57;2.83;;;1.60;;
8488;SDS011;4281;45.772;12.852;2022-08-21T10:58:29;2.33;;;1.70;;
8488;SDS011;4281;45.772;12.852;2022-08-21T11:01:04;3.80;;;1.87;;
8488;SDS011;4281;45.772;12.852;2022-08-21T11:03:41;4.83;;;1.83;;
8488;SDS011;4281;45.772;12.852;2022-08-21T11:06:14;3.97;;;1.53;;
8488;SDS011;4281;45.772;12.852;2022-08-21T11:08:48;2.10;;;1.50;;
8488;SDS011;4281;45.772;12.852;2022-08-21T11:11:22;2.70;;;1.60;;
8488;SDS011;4281;45.772;12.852;2022-08-21T11:14:01;3.30;;;1.73;;
8488;SDS011;4281;45.772;12.852;2022-08-21T11:16:37;3.47;;;1.80;;
8488;SDS011;4281;45.772;12.852;2022-08-21T11:19:11;3.13;;;1.60;;
8488;SDS011;4281;45.772;12.852;2022-08-21T11:21:46;3.00;;;1.70;;
8488;SDS011;4281;45.772;12.852;2022-08-21T11:24:24;1.63;;;1.53;;
8488;SDS011;4281;45.772;12.852;2022-08-21T11:27:00;2.40;;;1.60;;
8488;SDS011;4281;45.772;12.852;2022-08-21T11:29:33;2.23;;;1.70;;
8488;SDS011;4281;45.772;12.852;2022-08-21T11:32:10;2.90;;;1.60;;
8488;SDS011;4281;45.772;12.852;2022-08-21T11:34:54;1.80;;;1.50;;
8488;SDS011;4281;45.772;12.852;2022-08-21T11:37:36;1.87;;;1.43;;
8488;SDS011;4281;45.772;12.852;2022-08-21T11:40:19;2.13;;;1.47;;
8488;SDS011;4281;45.772;12.852;2022-08-21T11:42:59;1.57;;;1.43;;
8488;SDS011;4281;45.772;12.852;2022-08-21T11:45:35;2.00;;;1.53;;
8488;SDS011;4281;45.772;12.852;2022-08-21T11:48:12;1.87;;;1.47;;
8488;SDS011;4281;45.772;12.852;2022-08-21T11:50:51;2.13;;;1.40;;
8488;SDS011;4281;45.772;12.852;2022-08-21T11:53:22;2.10;;;1.60;;
8488;SDS011;4281;45.772;12.852;2022-08-21T11:55:57;2.60;;;1.70;;
8488;SDS011;4281;45.772;12.852;2022-08-21T11:58:32;3.20;;;1.50;;
8488;SDS011;4281;45.772;12.852;2022-08-21T12:01:07;1.50;;;1.40;;
8488;SDS011;4281;45.772;12.852;2022-08-21T12:03:41;2.27;;;1.47;;
8488;SDS011;4281;45.772;12.852;2022-08-21T12:06:27;1.60;;;1.50;;
8488;SDS011;4281;45.772;12.852;2022-08-21T12:08:58;2.13;;;1.40;;
8488;SDS011;4281;45.772;12.852;2022-08-21T12:11:29;1.93;;;1.60;;
8488;SDS011;4281;45.772;12.852;2022-08-21T12:13:58;2.40;;;1.50;;
8488;SDS011;4281;45.772;12.852;2022-08-21T12:16:39;5.37;;;1.70;;
8488;SDS011;4281;45.772;12.852;2022-08-21T12:19:12;2.03;;;1.30;;
8488;SDS011;4281;45.772;12.852;2022-08-21T12:21:58;1.77;;;1.40;;
8488;SDS011;4281;45.772;12.852;2022-08-21T12:24:37;3.33;;;1.80;;
8488;SDS011;4281;45.772;12.852;2022-08-21T12:29:58;2.13;;;1.47;;
8488;SDS011;4281;45.772;12.852;2022-08-21T12:32:29;1.27;;;1.10;;
8488;SDS011;4281;45.772;12.852;2022-08-21T12:35:13;2.10;;;1.50;;
8488;SDS011;4281;45.772;12.852;2022-08-21T12:37:52;2.37;;;1.47;;
8488;SDS011;4281;45.772;12.852;2022-08-21T12:40:28;2.73;;;1.60;;
8488;SDS011;4281;45.772;12.852;2022-08-21T12:42:59;2.40;;;1.33;;
8488;SDS011;4281;45.772;12.852;2022-08-21T12:45:31;1.53;;;1.40;;
8488;SDS011;4281;45.772;12.852;2022-08-21T12:48:02;2.70;;;1.70;;
8488;SDS011;4281;45.772;12.852;2022-08-21T12:50:38;2.97;;;1.50;;
8488;SDS011;4281;45.772;12.852;2022-08-21T12:53:15;1.40;;;1.20;;
8488;SDS011;4281;45.772;12.852;2022-08-21T12:55:51;2.53;;;1.50;;
8488;SDS011;4281;45.772;12.852;2022-08-21T12:58:22;1.70;;;1.37;;
8488;SDS011;4281;45.772;12.852;2022-08-21T13:00:52;1.57;;;1.27;;
8488;SDS011;4281;45.772;12.852;2022-08-21T13:03:23;3.23;;;1.27;;
8488;SDS011;4281;45.772;12.852;2022-08-21T13:05:53;1.40;;;1.30;;
8488;SDS011;4281;45.772;12.852;2022-08-21T13:08:22;1.43;;;1.17;;
8488;SDS011;4281;45.772;12.852;2022-08-21T13:10:56;2.03;;;1.13;;
8488;SDS011;4281;45.772;12.852;2022-08-21T13:13:40;2.03;;;1.40;;
8488;SDS011;4281;45.772;12.852;2022-08-21T13:16:18;1.67;;;1.27;;
8488;SDS011;4281;45.772;12.852;2022-08-21T13:18:55;1.83;;;1.20;;
8488;SDS011;4281;45.772;12.852;2022-08-21T13:21:31;2.83;;;1.20;;
8488;SDS011;4281;45.772;12.852;2022-08-21T13:24:13;2.53;;;1.30;;
8488;SDS011;4281;45.772;12.852;2022-08-21T13:27:14;2.83;;;1.33;;
8488;SDS011;4281;45.772;12.852;2022-08-21T13:29:47;2.93;;;1.33;;
8488;SDS011;4281;45.772;12.852;2022-08-21T13:32:20;1.07;;;1.00;;
8488;SDS011;4281;45.772;12.852;2022-08-21T13:34:58;1.10;;;1.00;;
8488;SDS011;4281;45.772;12.852;2022-08-21T13:37:36;1.47;;;1.00;;
8488;SDS011;4281;45.772;12.852;2022-08-21T13:40:08;1.33;;;1.23;;
8488;SDS011;4281;45.772;12.852;2022-08-21T13:42:40;1.40;;;1.30;;
8488;SDS011;4281;45.772;12.852;2022-08-21T13:45:14;1.50;;;1.17;;
8488;SDS011;4281;45.772;12.852;2022-08-21T13:47:50;1.47;;;1.07;;
8488;SDS011;4281;45.772;12.852;2022-08-21T13:50:21;1.33;;;1.10;;
8488;SDS011;4281;45.772;12.852;2022-08-21T13:52:59;1.50;;;1.20;;
8488;SDS011;4281;45.772;12.852;2022-08-21T13:55:36;1.80;;;1.00;;
8488;SDS011;4281;45.772;12.852;2022-08-21T13:58:06;1.80;;;1.27;;
8488;SDS011;4281;45.772;12.852;2022-08-21T14:00:43;2.53;;;1.40;;
8488;SDS011;4281;45.772;12.852;2022-08-21T14:03:15;2.37;;;1.27;;
8488;SDS011;4281;45.772;12.852;2022-08-21T14:05:55;2.60;;;1.47;;
8488;SDS011;4281;45.772;12.852;2022-08-21T14:08:29;1.70;;;1.30;;
8488;SDS011;4281;45.772;12.852;2022-08-21T14:11:00;1.20;;;1.10;;
8488;SDS011;4281;45.772;12.852;2022-08-21T14:13:36;1.10;;;1.10;;
8488;SDS011;4281;45.772;12.852;2022-08-21T14:16:11;1.37;;;1.10;;
8488;SDS011;4281;45.772;12.852;2022-08-21T14:18:43;1.90;;;1.30;;
8488;SDS011;4281;45.772;12.852;2022-08-21T14:21:23;1.63;;;1.03;;
8488;SDS011;4281;45.772;12.852;2022-08-21T14:24:03;2.77;;;1.20;;
8488;SDS011;4281;45.772;12.852;2022-08-21T14:26:35;1.77;;;1.30;;
8488;SDS011;4281;45.772;12.852;2022-08-21T14:29:06;1.47;;;1.20;;
8488;SDS011;4281;45.772;12.852;2022-08-21T14:31:36;1.43;;;1.20;;
8488;SDS011;4281;45.772;12.852;2022-08-21T14:34:09;1.53;;;1.13;;
8488;SDS011;4281;45.772;12.852;2022-08-21T14:36:45;2.23;;;1.20;;
8488;SDS011;4281;45.772;12.852;2022-08-21T14:39:16;2.93;;;1.20;;
8488;SDS011;4281;45.772;12.852;2022-08-21T14:44:23;1.87;;;1.10;;
8488;SDS011;4281;45.772;12.852;2022-08-21T14:46:51;1.37;;;1.13;;
8488;SDS011;4281;45.772;12.852;2022-08-21T14:49:23;1.50;;;1.00;;
8488;SDS011;4281;45.772;12.852;2022-08-21T14:51:54;1.20;;;1.10;;
8488;SDS011;4281;45.772;12.852;2022-08-21T14:54:26;1.27;;;1.10;;
8488;SDS011;4281;45.772;12.852;2022-08-21T14:56:59;1.30;;;1.20;;
8488;SDS011;4281;45.772;12.852;2022-08-21T14:59:29;2.87;;;1.20;;
8488;SDS011;4281;45.772;12.852;2022-08-21T15:01:59;1.60;;;1.00;;
8488;SDS011;4281;45.772;12.852;2022-08-21T15:04:27;1.93;;;1.20;;
8488;SDS011;4281;45.772;12.852;2022-08-21T15:06:56;2.20;;;1.00;;
8488;SDS011;4281;45.772;12.852;2022-08-21T15:09:27;2.33;;;1.00;;
8488;SDS011;4281;45.772;12.852;2022-08-21T15:11:57;3.23;;;1.20;;
8488;SDS011;4281;45.772;12.852;2022-08-21T15:14:28;1.00;;;1.00;;
8488;SDS011;4281;45.772;12.852;2022-08-21T15:16:57;2.87;;;1.00;;
8488;SDS011;4281;45.772;12.852;2022-08-21T15:19:26;1.97;;;1.10;;
8488;SDS011;4281;45.772;12.852;2022-08-21T15:21:56;2.30;;;1.00;;
8488;SDS011;4281;45.772;12.852;2022-08-21T15:24:24;1.10;;;1.00;;
8488;SDS011;4281;45.772;12.852;2022-08-21T15:26:55;1.53;;;1.10;;
8488;SDS011;4281;45.772;12.852;2022-08-21T15:29:24;1.77;;;0.93;;
8488;SDS011;4281;45.772;12.852;2022-08-21T15:32:00;1.50;;;1.03;;
8488;SDS011;4281;45.772;12.852;2022-08-21T15:34:30;1.80;;;1.17;;
8488;SDS011;4281;45.772;12.852;2022-08-21T15:36:59;1.07;;;1.00;;
8488;SDS011;4281;45.772;12.852;2022-08-21T15:39:29;1.40;;;1.20;;
8488;SDS011;4281;45.772;12.852;2022-08-21T15:44:38;1.03;;;0.90;;
8488;SDS011;4281;45.772;12.852;2022-08-21T15:47:09;1.10;;;0.97;;
8488;SDS011;4281;45.772;12.852;2022-08-21T15:49:40;1.30;;;0.93;;
8488;SDS011;4281;45.772;12.852;2022-08-21T15:52:11;1.17;;;1.03;;